sensor_id;sensor_type;location;lat;lon;timestamp;P1;durP1;ratioP1;P2;durP2;ratioP2
76540;SDS011;65385;55.772;37.658;2024-01-15T00:00:13;16.60;;;7.10;;
76540;SDS011;65385;55.772;37.658;2024-01-15T00:01:14;19.35;;;8.18;;
76540;SDS011;65385;55.772;37.658;2024-01-15T00:02:15;14.55;;;7.45;;
76540;SDS011;65385;55.772;37.658;2024-01-15T00:03:16;16.02;;;8.25;;
76540;SDS011;65385;55.772;37.658;2024-01-15T00:04:16;10.15;;;6.57;;
76540;SDS011;65385;55.772;37.658;2024-01-15T00:05:17;15.15;;;9.25;;
76540;SDS011;65385;55.772;37.658;2024-01-15T00:06:17;17.02;;;7.68;;
76540;SDS011;65385;55.772;37.658;2024-01-15T00:07:18;9.18;;;5.32;;
76540;SDS011;65385;55.772;37.658;2024-01-15T00:08:18;18.52;;;9.07;;
76540;SDS011;65385;55.772;37.658;2024-01-15T00:09:19;13.20;;;8.40;;
76540;SDS011;65385;55.772;37.658;2024-01-15T00:10:20;20.33;;;9.48;;
76540;SDS011;65385;55.772;37.658;2024-01-15T00:11:20;15.70;;;8.25;;
76540;SDS011;65385;55.772;37.658;2024-01-15T00:12:21;14.43;;;8.25;;
76540;SDS011;65385;55.772;37.658;2024-01-15T00:13:21;13.23;;;7.30;;
76540;SDS011;65385;55.772;37.658;2024-01-15T00:14:22;14.15;;;7.63;;
76540;SDS011;65385;55.772;37.658;2024-01-15T00:15:23;11.05;;;6.68;;
76540;SDS011;65385;55.772;37.658;2024-01-15T00:16:24;17.95;;;8.98;;
76540;SDS011;65385;55.772;37.658;2024-01-15T00:17:25;12.63;;;7.78;;
76540;SDS011;65385;55.772;37.658;2024-01-15T00:18:25;15.05;;;7.53;;
76540;SDS011;65385;55.772;37.658;2024-01-15T00:19:26;12.65;;;6.63;;
76540;SDS011;65385;55.772;37.658;2024-01-15T00:20:27;13.10;;;7.80;;
76540;SDS011;65385;55.772;37.658;2024-01-15T00:21:28;11.73;;;6.40;;
76540;SDS011;65385;55.772;37.658;2024-01-15T00:22:28;17.52;;;7.82;;
76540;SDS011;65385;55.772;37.658;2024-01-15T00:23:29;13.25;;;6.90;;
76540;SDS011;65385;55.772;37.658;2024-01-15T00:24:30;16.90;;;7.90;;
76540;SDS011;65385;55.772;37.658;2024-01-15T00:25:30;16.73;;;7.80;;
76540;SDS011;65385;55.772;37.658;2024-01-15T00:26:31;16.15;;;8.27;;
76540;SDS011;65385;55.772;37.658;2024-01-15T00:27:31;11.55;;;7.50;;
76540;SDS011;65385;55.772;37.658;2024-01-15T00:28:32;16.50;;;7.22;;
76540;SDS011;65385;55.772;37.658;2024-01-15T00:29:32;15.23;;;8.10;;
76540;SDS011;65385;55.772;37.658;2024-01-15T00:30:33;17.83;;;8.77;;
76540;SDS011;65385;55.772;37.658;2024-01-15T00:31:34;16.95;;;8.73;;
76540;SDS011;65385;55.772;37.658;2024-01-15T00:32:35;16.35;;;8.80;;
76540;SDS011;65385;55.772;37.658;2024-01-15T00:33:35;22.65;;;7.90;;
76540;SDS011;65385;55.772;37.658;2024-01-15T00:34:36;17.73;;;7.82;;
76540;SDS011;65385;55.772;37.658;2024-01-15T00:35:36;20.35;;;8.68;;
76540;SDS011;65385;55.772;37.658;2024-01-15T00:36:37;16.75;;;7.43;;
76540;SDS011;65385;55.772;37.658;2024-01-15T00:37:37;15.43;;;7.47;;
76540;SDS011;65385;55.772;37.658;2024-01-15T00:38:38;14.18;;;8.32;;
76540;SDS011;65385;55.772;37.658;2024-01-15T00:39:38;16.88;;;8.80;;
76540;SDS011;65385;55.772;37.658;2024-01-15T00:40:39;18.60;;;9.63;;
76540;SDS011;65385;55.772;37.658;2024-01-15T00:41:39;15.90;;;7.72;;
76540;SDS011;65385;55.772;37.658;2024-01-15T00:42:40;14.48;;;7.90;;
76540;SDS011;65385;55.772;37.658;2024-01-15T00:43:40;16.40;;;8.25;;
76540;SDS011;65385;55.772;37.658;2024-01-15T00:44:42;18.17;;;9.18;;
76540;SDS011;65385;55.772;37.658;2024-01-15T00:45:42;14.15;;;7.22;;
76540;SDS011;65385;55.772;37.658;2024-01-15T00:46:43;17.95;;;8.27;;
76540;SDS011;65385;55.772;37.658;2024-01-15T00:47:48;17.75;;;8.75;;
76540;SDS011;65385;55.772;37.658;2024-01-15T00:48:49;18.02;;;8.20;;
76540;SDS011;65385;55.772;37.658;2024-01-15T00:49:49;15.50;;;7.95;;
76540;SDS011;65385;55.772;37.658;2024-01-15T00:50:50;17.05;;;8.48;;
76540;SDS011;65385;55.772;37.658;2024-01-15T00:51:51;17.45;;;8.70;;
76540;SDS011;65385;55.772;37.658;2024-01-15T00:52:52;17.75;;;9.20;;
76540;SDS011;65385;55.772;37.658;2024-01-15T00:53:52;22.48;;;9.45;;
76540;SDS011;65385;55.772;37.658;2024-01-15T00:54:53;18.45;;;8.55;;
76540;SDS011;65385;55.772;37.658;2024-01-15T00:55:54;16.98;;;8.90;;
76540;SDS011;65385;55.772;37.658;2024-01-15T00:56:54;16.60;;;8.18;;
76540;SDS011;65385;55.772;37.658;2024-01-15T00:57:55;15.82;;;7.97;;
76540;SDS011;65385;55.772;37.658;2024-01-15T00:58:55;16.33;;;8.90;;
76540;SDS011;65385;55.772;37.658;2024-01-15T00:59:56;18.33;;;9.15;;
76540;SDS011;65385;55.772;37.658;2024-01-15T01:00:57;15.50;;;8.05;;
76540;SDS011;65385;55.772;37.658;2024-01-15T01:01:58;13.52;;;6.82;;
76540;SDS011;65385;55.772;37.658;2024-01-15T01:02:58;12.68;;;8.45;;
76540;SDS011;65385;55.772;37.658;2024-01-15T01:03:59;17.88;;;9.43;;
76540;SDS011;65385;55.772;37.658;2024-01-15T01:04:59;14.48;;;8.02;;
76540;SDS011;65385;55.772;37.658;2024-01-15T01:06:00;14.57;;;7.63;;
76540;SDS011;65385;55.772;37.658;2024-01-15T01:07:00;16.65;;;8.40;;
76540;SDS011;65385;55.772;37.658;2024-01-15T01:08:01;17.60;;;7.40;;
76540;SDS011;65385;55.772;37.658;2024-01-15T01:09:02;18.38;;;8.80;;
76540;SDS011;65385;55.772;37.658;2024-01-15T01:10:02;18.58;;;9.55;;
76540;SDS011;65385;55.772;37.658;2024-01-15T01:11:03;15.95;;;6.95;;
76540;SDS011;65385;55.772;37.658;2024-01-15T01:12:04;20.55;;;9.77;;
76540;SDS011;65385;55.772;37.658;2024-01-15T01:13:05;16.52;;;9.30;;
76540;SDS011;65385;55.772;37.658;2024-01-15T01:14:05;20.85;;;8.93;;
76540;SDS011;65385;55.772;37.658;2024-01-15T01:15:06;16.08;;;8.02;;
76540;SDS011;65385;55.772;37.658;2024-01-15T01:16:07;19.35;;;8.20;;
76540;SDS011;65385;55.772;37.658;2024-01-15T01:17:08;12.65;;;5.90;;
76540;SDS011;65385;55.772;37.658;2024-01-15T01:18:09;14.88;;;7.55;;
76540;SDS011;65385;55.772;37.658;2024-01-15T01:19:09;19.38;;;8.82;;
76540;SDS011;65385;55.772;37.658;2024-01-15T01:20:10;15.82;;;7.25;;
76540;SDS011;65385;55.772;37.658;2024-01-15T01:21:10;17.63;;;8.63;;
76540;SDS011;65385;55.772;37.658;2024-01-15T01:22:11;14.50;;;7.68;;
76540;SDS011;65385;55.772;37.658;2024-01-15T01:23:11;18.00;;;7.68;;
76540;SDS011;65385;55.772;37.658;2024-01-15T01:24:12;16.33;;;8.93;;
76540;SDS011;65385;55.772;37.658;2024-01-15T01:25:13;15.30;;;7.60;;
76540;SDS011;65385;55.772;37.658;2024-01-15T01:26:17;21.75;;;10.55;;
76540;SDS011;65385;55.772;37.658;2024-01-15T01:27:18;18.02;;;9.25;;
76540;SDS011;65385;55.772;37.658;2024-01-15T01:28:18;13.35;;;7.97;;
76540;SDS011;65385;55.772;37.658;2024-01-15T01:29:19;14.85;;;7.80;;
76540;SDS011;65385;55.772;37.658;2024-01-15T01:30:19;14.82;;;8.05;;
76540;SDS011;65385;55.772;37.658;2024-01-15T01:31:20;19.70;;;9.15;;
76540;SDS011;65385;55.772;37.658;2024-01-15T01:32:21;16.35;;;7.45;;
76540;SDS011;65385;55.772;37.658;2024-01-15T01:33:21;18.77;;;9.90;;
76540;SDS011;65385;55.772;37.658;2024-01-15T01:34:22;19.83;;;8.95;;
76540;SDS011;65385;55.772;37.658;2024-01-15T01:35:22;17.38;;;9.18;;
76540;SDS011;65385;55.772;37.658;2024-01-15T01:36:23;18.40;;;8.40;;
76540;SDS011;65385;55.772;37.658;2024-01-15T01:37:24;23.58;;;9.27;;
76540;SDS011;65385;55.772;37.658;2024-01-15T01:38:24;21.23;;;9.23;;
76540;SDS011;65385;55.772;37.658;2024-01-15T01:39:25;22.77;;;8.98;;
76540;SDS011;65385;55.772;37.658;2024-01-15T01:40:26;17.35;;;8.57;;
76540;SDS011;65385;55.772;37.658;2024-01-15T01:41:26;19.38;;;10.02;;
76540;SDS011;65385;55.772;37.658;2024-01-15T01:42:27;20.95;;;10.00;;
76540;SDS011;65385;55.772;37.658;2024-01-15T01:43:27;16.65;;;9.32;;
76540;SDS011;65385;55.772;37.658;2024-01-15T01:44:28;15.02;;;8.95;;
76540;SDS011;65385;55.772;37.658;2024-01-15T01:45:29;19.55;;;8.88;;
76540;SDS011;65385;55.772;37.658;2024-01-15T01:46:29;17.65;;;8.38;;
76540;SDS011;65385;55.772;37.658;2024-01-15T01:47:31;14.27;;;7.55;;
76540;SDS011;65385;55.772;37.658;2024-01-15T01:48:32;18.85;;;9.95;;
76540;SDS011;65385;55.772;37.658;2024-01-15T01:49:33;14.32;;;8.02;;
76540;SDS011;65385;55.772;37.658;2024-01-15T01:50:35;19.45;;;8.45;;
76540;SDS011;65385;55.772;37.658;2024-01-15T01:51:36;18.25;;;8.27;;
76540;SDS011;65385;55.772;37.658;2024-01-15T01:52:39;17.13;;;10.02;;
76540;SDS011;65385;55.772;37.658;2024-01-15T01:53:41;17.92;;;9.30;;
76540;SDS011;65385;55.772;37.658;2024-01-15T01:54:44;19.42;;;9.68;;
76540;SDS011;65385;55.772;37.658;2024-01-15T01:55:45;22.50;;;9.98;;
76540;SDS011;65385;55.772;37.658;2024-01-15T01:56:47;21.38;;;8.80;;
76540;SDS011;65385;55.772;37.658;2024-01-15T01:57:49;20.60;;;8.27;;
76540;SDS011;65385;55.772;37.658;2024-01-15T01:58:50;15.20;;;8.13;;
76540;SDS011;65385;55.772;37.658;2024-01-15T01:59:51;19.95;;;9.30;;
76540;SDS011;65385;55.772;37.658;2024-01-15T02:00:51;16.23;;;8.77;;
76540;SDS011;65385;55.772;37.658;2024-01-15T02:01:56;16.13;;;7.93;;
76540;SDS011;65385;55.772;37.658;2024-01-15T02:02:57;15.60;;;9.05;;
76540;SDS011;65385;55.772;37.658;2024-01-15T02:03:58;18.27;;;8.60;;
76540;SDS011;65385;55.772;37.658;2024-01-15T02:04:59;20.15;;;10.18;;
76540;SDS011;65385;55.772;37.658;2024-01-15T02:05:59;17.73;;;8.82;;
76540;SDS011;65385;55.772;37.658;2024-01-15T02:07:01;17.45;;;9.32;;
76540;SDS011;65385;55.772;37.658;2024-01-15T02:08:01;14.52;;;7.75;;
76540;SDS011;65385;55.772;37.658;2024-01-15T02:09:02;18.35;;;8.98;;
76540;SDS011;65385;55.772;37.658;2024-01-15T02:10:04;18.60;;;9.52;;
76540;SDS011;65385;55.772;37.658;2024-01-15T02:11:06;13.38;;;7.95;;
76540;SDS011;65385;55.772;37.658;2024-01-15T02:12:07;21.20;;;10.38;;
76540;SDS011;65385;55.772;37.658;2024-01-15T02:13:08;20.73;;;10.40;;
76540;SDS011;65385;55.772;37.658;2024-01-15T02:14:08;15.82;;;9.02;;
76540;SDS011;65385;55.772;37.658;2024-01-15T02:15:10;17.15;;;9.10;;
76540;SDS011;65385;55.772;37.658;2024-01-15T02:16:10;18.98;;;9.85;;
76540;SDS011;65385;55.772;37.658;2024-01-15T02:17:11;22.67;;;10.55;;
76540;SDS011;65385;55.772;37.658;2024-01-15T02:18:11;18.77;;;9.57;;
76540;SDS011;65385;55.772;37.658;2024-01-15T02:19:16;19.67;;;8.88;;
76540;SDS011;65385;55.772;37.658;2024-01-15T02:20:17;18.08;;;8.18;;
76540;SDS011;65385;55.772;37.658;2024-01-15T02:21:17;18.27;;;9.45;;
76540;SDS011;65385;55.772;37.658;2024-01-15T02:22:18;16.25;;;8.23;;
76540;SDS011;65385;55.772;37.658;2024-01-15T02:23:19;14.43;;;8.95;;
76540;SDS011;65385;55.772;37.658;2024-01-15T02:24:19;15.15;;;8.93;;
76540;SDS011;65385;55.772;37.658;2024-01-15T02:25:20;13.90;;;8.52;;
76540;SDS011;65385;55.772;37.658;2024-01-15T02:26:21;22.17;;;10.00;;
76540;SDS011;65385;55.772;37.658;2024-01-15T02:27:22;15.50;;;8.15;;
76540;SDS011;65385;55.772;37.658;2024-01-15T02:28:22;20.13;;;9.38;;
76540;SDS011;65385;55.772;37.658;2024-01-15T02:29:23;15.77;;;9.35;;
76540;SDS011;65385;55.772;37.658;2024-01-15T02:30:24;20.92;;;8.82;;
76540;SDS011;65385;55.772;37.658;2024-01-15T02:31:25;16.98;;;9.30;;
76540;SDS011;65385;55.772;37.658;2024-01-15T02:32:26;17.00;;;8.82;;
76540;SDS011;65385;55.772;37.658;2024-01-15T02:33:27;20.33;;;10.00;;
76540;SDS011;65385;55.772;37.658;2024-01-15T02:34:29;17.48;;;10.27;;
76540;SDS011;65385;55.772;37.658;2024-01-15T02:35:32;19.15;;;9.05;;
76540;SDS011;65385;55.772;37.658;2024-01-15T02:36:33;22.33;;;9.48;;
76540;SDS011;65385;55.772;37.658;2024-01-15T02:37:34;15.68;;;8.32;;
76540;SDS011;65385;55.772;37.658;2024-01-15T02:38:36;23.17;;;10.82;;
76540;SDS011;65385;55.772;37.658;2024-01-15T02:39:36;19.60;;;9.98;;
76540;SDS011;65385;55.772;37.658;2024-01-15T02:40:37;20.13;;;10.07;;
76540;SDS011;65385;55.772;37.658;2024-01-15T02:41:38;14.68;;;8.32;;
76540;SDS011;65385;55.772;37.658;2024-01-15T02:42:39;19.05;;;9.77;;
76540;SDS011;65385;55.772;37.658;2024-01-15T02:43:40;18.88;;;9.77;;
76540;SDS011;65385;55.772;37.658;2024-01-15T02:44:41;21.65;;;9.82;;
76540;SDS011;65385;55.772;37.658;2024-01-15T02:45:42;18.33;;;10.40;;
76540;SDS011;65385;55.772;37.658;2024-01-15T02:46:42;20.50;;;9.75;;
76540;SDS011;65385;55.772;37.658;2024-01-15T02:47:43;22.92;;;10.70;;
76540;SDS011;65385;55.772;37.658;2024-01-15T02:48:43;21.58;;;9.93;;
76540;SDS011;65385;55.772;37.658;2024-01-15T02:49:44;19.13;;;10.68;;
76540;SDS011;65385;55.772;37.658;2024-01-15T02:50:44;19.10;;;9.15;;
76540;SDS011;65385;55.772;37.658;2024-01-15T02:51:45;16.40;;;9.13;;
76540;SDS011;65385;55.772;37.658;2024-01-15T02:52:47;18.33;;;8.55;;
76540;SDS011;65385;55.772;37.658;2024-01-15T02:53:48;16.40;;;9.05;;
76540;SDS011;65385;55.772;37.658;2024-01-15T02:54:50;17.50;;;9.50;;
76540;SDS011;65385;55.772;37.658;2024-01-15T02:55:51;23.92;;;10.57;;
76540;SDS011;65385;55.772;37.658;2024-01-15T02:56:51;24.33;;;11.10;;
76540;SDS011;65385;55.772;37.658;2024-01-15T02:57:52;23.27;;;11.25;;
76540;SDS011;65385;55.772;37.658;2024-01-15T02:58:52;22.73;;;10.80;;
76540;SDS011;65385;55.772;37.658;2024-01-15T02:59:53;18.08;;;8.95;;
76540;SDS011;65385;55.772;37.658;2024-01-15T03:00:53;14.90;;;8.95;;
76540;SDS011;65385;55.772;37.658;2024-01-15T03:01:54;17.70;;;9.68;;
76540;SDS011;65385;55.772;37.658;2024-01-15T03:02:55;20.65;;;9.38;;
76540;SDS011;65385;55.772;37.658;2024-01-15T03:03:55;19.67;;;9.70;;
76540;SDS011;65385;55.772;37.658;2024-01-15T03:04:57;13.98;;;9.13;;
76540;SDS011;65385;55.772;37.658;2024-01-15T03:05:58;21.83;;;8.90;;
76540;SDS011;65385;55.772;37.658;2024-01-15T03:06:58;20.60;;;9.98;;
76540;SDS011;65385;55.772;37.658;2024-01-15T03:07:59;19.90;;;8.95;;
76540;SDS011;65385;55.772;37.658;2024-01-15T03:09:00;20.25;;;9.93;;
76540;SDS011;65385;55.772;37.658;2024-01-15T03:10:00;16.48;;;8.52;;
76540;SDS011;65385;55.772;37.658;2024-01-15T03:11:01;21.23;;;10.93;;
76540;SDS011;65385;55.772;37.658;2024-01-15T03:12:01;17.83;;;9.60;;
76540;SDS011;65385;55.772;37.658;2024-01-15T03:13:02;21.88;;;9.93;;
76540;SDS011;65385;55.772;37.658;2024-01-15T03:14:03;15.88;;;8.93;;
76540;SDS011;65385;55.772;37.658;2024-01-15T03:15:04;20.02;;;9.27;;
76540;SDS011;65385;55.772;37.658;2024-01-15T03:16:06;22.08;;;10.70;;
76540;SDS011;65385;55.772;37.658;2024-01-15T03:17:06;16.70;;;9.45;;
76540;SDS011;65385;55.772;37.658;2024-01-15T03:18:09;22.77;;;8.73;;
76540;SDS011;65385;55.772;37.658;2024-01-15T03:19:10;20.50;;;9.70;;
76540;SDS011;65385;55.772;37.658;2024-01-15T03:20:10;20.50;;;8.75;;
76540;SDS011;65385;55.772;37.658;2024-01-15T03:21:11;18.45;;;9.70;;
76540;SDS011;65385;55.772;37.658;2024-01-15T03:22:12;21.90;;;10.88;;
76540;SDS011;65385;55.772;37.658;2024-01-15T03:23:12;23.23;;;11.25;;
76540;SDS011;65385;55.772;37.658;2024-01-15T03:24:13;21.42;;;9.85;;
76540;SDS011;65385;55.772;37.658;2024-01-15T03:25:14;16.67;;;9.23;;
76540;SDS011;65385;55.772;37.658;2024-01-15T03:26:14;17.98;;;8.35;;
76540;SDS011;65385;55.772;37.658;2024-01-15T03:27:15;24.27;;;11.23;;
76540;SDS011;65385;55.772;37.658;2024-01-15T03:28:16;23.77;;;10.90;;
76540;SDS011;65385;55.772;37.658;2024-01-15T03:29:16;22.48;;;11.80;;
76540;SDS011;65385;55.772;37.658;2024-01-15T03:30:17;16.45;;;8.93;;
76540;SDS011;65385;55.772;37.658;2024-01-15T03:31:18;23.45;;;11.02;;
76540;SDS011;65385;55.772;37.658;2024-01-15T03:32:18;22.05;;;10.48;;
76540;SDS011;65385;55.772;37.658;2024-01-15T03:33:19;17.55;;;9.90;;
76540;SDS011;65385;55.772;37.658;2024-01-15T03:34:20;19.90;;;9.63;;
76540;SDS011;65385;55.772;37.658;2024-01-15T03:35:21;18.08;;;9.40;;
76540;SDS011;65385;55.772;37.658;2024-01-15T03:36:22;25.15;;;10.65;;
76540;SDS011;65385;55.772;37.658;2024-01-15T03:37:22;13.15;;;7.07;;
76540;SDS011;65385;55.772;37.658;2024-01-15T03:38:23;20.77;;;10.27;;
76540;SDS011;65385;55.772;37.658;2024-01-15T03:39:24;20.83;;;9.18;;
76540;SDS011;65385;55.772;37.658;2024-01-15T03:40:24;18.73;;;9.07;;
76540;SDS011;65385;55.772;37.658;2024-01-15T03:41:25;18.77;;;9.80;;
76540;SDS011;65385;55.772;37.658;2024-01-15T03:42:25;19.13;;;9.43;;
76540;SDS011;65385;55.772;37.658;2024-01-15T03:43:27;19.75;;;10.27;;
76540;SDS011;65385;55.772;37.658;2024-01-15T03:44:27;22.52;;;10.77;;
76540;SDS011;65385;55.772;37.658;2024-01-15T03:45:28;18.23;;;9.18;;
76540;SDS011;65385;55.772;37.658;2024-01-15T03:46:28;19.67;;;10.18;;
76540;SDS011;65385;55.772;37.658;2024-01-15T03:47:29;19.98;;;9.88;;
76540;SDS011;65385;55.772;37.658;2024-01-15T03:48:30;26.42;;;10.57;;
76540;SDS011;65385;55.772;37.658;2024-01-15T03:49:30;16.30;;;8.98;;
76540;SDS011;65385;55.772;37.658;2024-01-15T03:50:31;21.27;;;10.27;;
76540;SDS011;65385;55.772;37.658;2024-01-15T03:51:32;18.73;;;9.02;;
76540;SDS011;65385;55.772;37.658;2024-01-15T03:52:32;17.17;;;9.32;;
76540;SDS011;65385;55.772;37.658;2024-01-15T03:53:33;25.48;;;10.15;;
76540;SDS011;65385;55.772;37.658;2024-01-15T03:54:33;20.90;;;9.27;;
76540;SDS011;65385;55.772;37.658;2024-01-15T03:55:34;22.35;;;10.05;;
76540;SDS011;65385;55.772;37.658;2024-01-15T03:56:35;15.02;;;7.22;;
76540;SDS011;65385;55.772;37.658;2024-01-15T03:57:35;18.75;;;9.85;;
76540;SDS011;65385;55.772;37.658;2024-01-15T03:58:37;24.25;;;10.70;;
76540;SDS011;65385;55.772;37.658;2024-01-15T03:59:38;22.48;;;9.07;;
76540;SDS011;65385;55.772;37.658;2024-01-15T04:00:42;18.30;;;10.18;;
76540;SDS011;65385;55.772;37.658;2024-01-15T04:01:47;16.55;;;8.63;;
76540;SDS011;65385;55.772;37.658;2024-01-15T04:02:49;25.08;;;9.85;;
76540;SDS011;65385;55.772;37.658;2024-01-15T04:03:50;15.15;;;9.07;;
76540;SDS011;65385;55.772;37.658;2024-01-15T04:04:51;19.15;;;9.80;;
76540;SDS011;65385;55.772;37.658;2024-01-15T04:05:52;15.07;;;7.78;;
76540;SDS011;65385;55.772;37.658;2024-01-15T04:06:52;26.38;;;11.05;;
76540;SDS011;65385;55.772;37.658;2024-01-15T04:07:53;22.38;;;10.13;;
76540;SDS011;65385;55.772;37.658;2024-01-15T04:08:53;23.38;;;9.68;;
76540;SDS011;65385;55.772;37.658;2024-01-15T04:09:54;22.08;;;11.02;;
76540;SDS011;65385;55.772;37.658;2024-01-15T04:10:55;19.08;;;10.20;;
76540;SDS011;65385;55.772;37.658;2024-01-15T04:11:56;20.45;;;10.38;;
76540;SDS011;65385;55.772;37.658;2024-01-15T04:12:56;19.30;;;9.52;;
76540;SDS011;65385;55.772;37.658;2024-01-15T04:13:57;19.23;;;10.07;;
76540;SDS011;65385;55.772;37.658;2024-01-15T04:14:58;21.48;;;10.85;;
76540;SDS011;65385;55.772;37.658;2024-01-15T04:15:59;22.90;;;11.23;;
76540;SDS011;65385;55.772;37.658;2024-01-15T04:17:01;24.60;;;11.10;;
76540;SDS011;65385;55.772;37.658;2024-01-15T04:18:02;19.67;;;10.23;;
76540;SDS011;65385;55.772;37.658;2024-01-15T04:19:02;24.83;;;10.70;;
76540;SDS011;65385;55.772;37.658;2024-01-15T04:20:03;23.88;;;11.30;;
76540;SDS011;65385;55.772;37.658;2024-01-15T04:21:05;24.58;;;11.23;;
76540;SDS011;65385;55.772;37.658;2024-01-15T04:22:06;18.90;;;9.77;;
76540;SDS011;65385;55.772;37.658;2024-01-15T04:23:07;18.80;;;10.32;;
76540;SDS011;65385;55.772;37.658;2024-01-15T04:24:07;19.10;;;9.90;;
76540;SDS011;65385;55.772;37.658;2024-01-15T04:25:08;22.42;;;11.02;;
76540;SDS011;65385;55.772;37.658;2024-01-15T04:26:08;22.67;;;11.10;;
76540;SDS011;65385;55.772;37.658;2024-01-15T04:27:09;24.48;;;11.35;;
76540;SDS011;65385;55.772;37.658;2024-01-15T04:28:10;22.45;;;11.30;;
76540;SDS011;65385;55.772;37.658;2024-01-15T04:29:10;21.23;;;11.38;;
76540;SDS011;65385;55.772;37.658;2024-01-15T04:30:11;27.38;;;12.00;;
76540;SDS011;65385;55.772;37.658;2024-01-15T04:31:20;23.33;;;11.40;;
76540;SDS011;65385;55.772;37.658;2024-01-15T04:32:22;18.83;;;10.20;;
76540;SDS011;65385;55.772;37.658;2024-01-15T04:33:22;21.10;;;11.32;;
76540;SDS011;65385;55.772;37.658;2024-01-15T04:34:23;25.13;;;10.88;;
76540;SDS011;65385;55.772;37.658;2024-01-15T04:35:23;23.30;;;12.07;;
76540;SDS011;65385;55.772;37.658;2024-01-15T04:36:24;14.45;;;6.63;;
76540;SDS011;65385;55.772;37.658;2024-01-15T04:37:24;27.83;;;12.27;;
76540;SDS011;65385;55.772;37.658;2024-01-15T04:38:25;19.58;;;10.43;;
76540;SDS011;65385;55.772;37.658;2024-01-15T04:39:26;23.05;;;10.18;;
76540;SDS011;65385;55.772;37.658;2024-01-15T04:40:26;17.80;;;10.13;;
76540;SDS011;65385;55.772;37.658;2024-01-15T04:41:28;21.58;;;9.75;;
76540;SDS011;65385;55.772;37.658;2024-01-15T04:42:28;26.58;;;11.38;;
76540;SDS011;65385;55.772;37.658;2024-01-15T04:43:29;21.83;;;10.13;;
76540;SDS011;65385;55.772;37.658;2024-01-15T04:44:29;19.52;;;10.30;;
76540;SDS011;65385;55.772;37.658;2024-01-15T04:45:30;19.77;;;10.63;;
76540;SDS011;65385;55.772;37.658;2024-01-15T04:46:31;24.27;;;11.38;;
76540;SDS011;65385;55.772;37.658;2024-01-15T04:47:31;24.88;;;12.25;;
76540;SDS011;65385;55.772;37.658;2024-01-15T04:48:32;18.30;;;10.00;;
76540;SDS011;65385;55.772;37.658;2024-01-15T04:49:33;19.95;;;10.65;;
76540;SDS011;65385;55.772;37.658;2024-01-15T04:50:34;20.83;;;11.52;;
76540;SDS011;65385;55.772;37.658;2024-01-15T04:51:34;22.90;;;11.05;;
76540;SDS011;65385;55.772;37.658;2024-01-15T04:52:35;21.60;;;10.93;;
76540;SDS011;65385;55.772;37.658;2024-01-15T04:53:35;24.20;;;11.65;;
76540;SDS011;65385;55.772;37.658;2024-01-15T04:54:36;23.27;;;11.25;;
76540;SDS011;65385;55.772;37.658;2024-01-15T04:55:37;24.52;;;12.50;;
76540;SDS011;65385;55.772;37.658;2024-01-15T04:56:37;23.88;;;11.45;;
76540;SDS011;65385;55.772;37.658;2024-01-15T04:57:38;23.70;;;11.32;;
76540;SDS011;65385;55.772;37.658;2024-01-15T04:58:38;25.30;;;12.75;;
76540;SDS011;65385;55.772;37.658;2024-01-15T04:59:39;19.52;;;9.60;;
76540;SDS011;65385;55.772;37.658;2024-01-15T05:00:40;27.73;;;10.98;;
76540;SDS011;65385;55.772;37.658;2024-01-15T05:01:41;23.70;;;10.90;;
76540;SDS011;65385;55.772;37.658;2024-01-15T05:02:41;25.90;;;11.98;;
76540;SDS011;65385;55.772;37.658;2024-01-15T05:03:42;27.92;;;12.00;;
76540;SDS011;65385;55.772;37.658;2024-01-15T05:04:42;22.83;;;10.48;;
76540;SDS011;65385;55.772;37.658;2024-01-15T05:05:43;19.77;;;9.82;;
76540;SDS011;65385;55.772;37.658;2024-01-15T05:06:44;24.30;;;11.00;;
76540;SDS011;65385;55.772;37.658;2024-01-15T05:07:44;23.30;;;11.75;;
76540;SDS011;65385;55.772;37.658;2024-01-15T05:08:45;24.65;;;12.13;;
76540;SDS011;65385;55.772;37.658;2024-01-15T05:09:45;26.08;;;11.82;;
76540;SDS011;65385;55.772;37.658;2024-01-15T05:10:46;25.65;;;11.75;;
76540;SDS011;65385;55.772;37.658;2024-01-15T05:11:47;23.00;;;11.38;;
76540;SDS011;65385;55.772;37.658;2024-01-15T05:12:48;26.85;;;11.93;;
76540;SDS011;65385;55.772;37.658;2024-01-15T05:13:49;24.52;;;11.82;;
76540;SDS011;65385;55.772;37.658;2024-01-15T05:14:49;21.35;;;9.48;;
76540;SDS011;65385;55.772;37.658;2024-01-15T05:15:50;22.17;;;11.50;;
76540;SDS011;65385;55.772;37.658;2024-01-15T05:16:50;27.42;;;11.93;;
76540;SDS011;65385;55.772;37.658;2024-01-15T05:17:51;24.80;;;11.77;;
76540;SDS011;65385;55.772;37.658;2024-01-15T05:18:52;21.45;;;11.63;;
76540;SDS011;65385;55.772;37.658;2024-01-15T05:19:52;26.92;;;12.60;;
76540;SDS011;65385;55.772;37.658;2024-01-15T05:20:53;27.75;;;11.85;;
76540;SDS011;65385;55.772;37.658;2024-01-15T05:21:53;20.52;;;10.38;;
76540;SDS011;65385;55.772;37.658;2024-01-15T05:22:54;21.88;;;11.23;;
76540;SDS011;65385;55.772;37.658;2024-01-15T05:23:55;21.98;;;10.65;;
76540;SDS011;65385;55.772;37.658;2024-01-15T05:24:55;19.38;;;10.27;;
76540;SDS011;65385;55.772;37.658;2024-01-15T05:25:56;23.88;;;10.07;;
76540;SDS011;65385;55.772;37.658;2024-01-15T05:26:57;26.35;;;13.38;;
76540;SDS011;65385;55.772;37.658;2024-01-15T05:27:57;25.02;;;11.73;;
76540;SDS011;65385;55.772;37.658;2024-01-15T05:28:58;26.70;;;12.85;;
76540;SDS011;65385;55.772;37.658;2024-01-15T05:29:59;21.90;;;11.55;;
76540;SDS011;65385;55.772;37.658;2024-01-15T05:30:59;23.20;;;10.98;;
76540;SDS011;65385;55.772;37.658;2024-01-15T05:32:00;19.85;;;9.45;;
76540;SDS011;65385;55.772;37.658;2024-01-15T05:33:00;24.98;;;12.30;;
76540;SDS011;65385;55.772;37.658;2024-01-15T05:34:01;22.33;;;10.65;;
76540;SDS011;65385;55.772;37.658;2024-01-15T05:35:02;20.58;;;10.18;;
76540;SDS011;65385;55.772;37.658;2024-01-15T05:36:04;23.95;;;12.35;;
76540;SDS011;65385;55.772;37.658;2024-01-15T05:37:05;25.02;;;11.57;;
76540;SDS011;65385;55.772;37.658;2024-01-15T05:38:05;25.02;;;13.25;;
76540;SDS011;65385;55.772;37.658;2024-01-15T05:39:06;29.08;;;11.88;;
76540;SDS011;65385;55.772;37.658;2024-01-15T05:40:07;24.33;;;12.55;;
76540;SDS011;65385;55.772;37.658;2024-01-15T05:41:09;21.75;;;11.15;;
76540;SDS011;65385;55.772;37.658;2024-01-15T05:42:10;23.27;;;11.52;;
76540;SDS011;65385;55.772;37.658;2024-01-15T05:43:11;24.73;;;13.23;;
76540;SDS011;65385;55.772;37.658;2024-01-15T05:44:11;21.88;;;10.93;;
76540;SDS011;65385;55.772;37.658;2024-01-15T05:45:12;22.02;;;11.45;;
76540;SDS011;65385;55.772;37.658;2024-01-15T05:46:12;24.45;;;11.80;;
76540;SDS011;65385;55.772;37.658;2024-01-15T05:47:14;24.25;;;12.45;;
76540;SDS011;65385;55.772;37.658;2024-01-15T05:48:15;21.33;;;12.02;;
76540;SDS011;65385;55.772;37.658;2024-01-15T05:49:15;23.10;;;12.43;;
76540;SDS011;65385;55.772;37.658;2024-01-15T05:50:16;25.52;;;12.10;;
76540;SDS011;65385;55.772;37.658;2024-01-15T05:51:16;23.42;;;11.77;;
76540;SDS011;65385;55.772;37.658;2024-01-15T05:52:17;25.33;;;11.95;;
76540;SDS011;65385;55.772;37.658;2024-01-15T05:53:18;21.98;;;11.07;;